Denbigh, Canada
Current Conditions -  °F | °C
As of 1:00 PM on Thursday 30 Oct 2014 (Local Time) from CYWA Reporting Station
Overcast Overcast  
Wind Chill: 34°   Ceiling: 3600
Heat Index: 39°   Visibility: 9mi
Dew Point: 23°   Wind: 7mph
Humidity: 52%   Direction: 320°NW
Pressure: 30.03"   Gusts: NA
Location:  45.15°N, 77.25°W
Report Text: CYWA 301700Z AUTO 32006KT 9SM OVC036 04/M05 A3003 RMK SLP175
Loading
Personal Weather Stations






























Interactive Weather Map
Tropical Storm Tracking
New forecast layout! Learn more

10-Day Weather Forecast

Advertisements
Track Severe Weather on mobile